Saint-Paul-De-Montminy, Canada
Current Conditions -  °F | °C
As of 5:11 AM on Friday 24 Oct 2014 (Local Time) from CYQB Reporting Station
Overcast Overcast  
Wind Chill: 38°   Ceiling: 5000
Heat Index: 43°   Visibility: 15mi
Dew Point: 36°   Wind: 8mph
Humidity: 76%   Direction: 60°ENE
Pressure: 29.9"   Gusts: NA
Location:  46.73°N, 70.37°W
Report Text: CYQB 240911Z 06007KT 15SM BKN050 OVC070 06/02 A2990 RMK SC5AC3 SLP127
Loading
Personal Weather Stations






























Interactive Weather Map
Tropical Storm Tracking
New forecast layout! Learn more

10-Day Weather Forecast

Advertisements
Track Severe Weather on mobile